CheckWX is a tool to help pilots better visualize weather data.  It is not intended as a substitute for an official pre-flight weather briefing.

20:22:52 UTC

KPDX METAR
Portland International Airport
Portland, Oregon, USA
Current

30 mins ago

KPDX 231953Z 01004KT 10SM FEW022 SCT033 BKN045 17/10 A3021 RMK AO2 SLP228 T01720100
Observed
Apr-23 @ 19:53 UTC
Wind
  • 010° at 4 KTS
Visibility
10 SM
Flight Rules
VFR
Cloud Levels
  • Few at 2,200' AGL
  • Scattered at 3,300' AGL
  • Broken at 4,500' AGL
Temperature
17°C / 63°F
Dewpoint
10°C / 50°F
Humidity
64%
Altimeter
30.21" Hg
Pressure
1023.02 hPa
Previous

1 hour ago

KPDX 231853Z 02003KT 10SM FEW018 BKN030 BKN045 17/11 A3022 RMK AO2 SLP231 T01720106
Observed
Apr-23 @ 18:53 UTC
Wind
  • 020° at 3 KTS
Visibility
10 SM
Flight Rules
MVFR
Cloud Levels
  • Few at 1,800' AGL
  • Broken at 3,000' AGL
  • Broken at 4,500' AGL
Temperature
17°C / 63°F
Dewpoint
11°C / 52°F
Humidity
68%
Altimeter
30.22" Hg
Pressure
1023.42 hPa
Previous

2 hours ago

KPDX 231753Z 03003KT 10SM FEW010 SCT020 BKN028 16/11 A3022 RMK AO2 SLP231 60000 T01560106 10156 20128 55002
Observed
Apr-23 @ 17:53 UTC
Wind
  • 030° at 3 KTS
Visibility
10 SM
Flight Rules
MVFR
Cloud Levels
  • Few at 1,000' AGL
  • Scattered at 2,000' AGL
  • Broken at 2,800' AGL
Temperature
16°C / 61°F
Dewpoint
11°C / 52°F
Humidity
72%
Altimeter
30.22" Hg
Pressure
1023.42 hPa